createdAt,value
2022-10-27T00:00:33.607Z,95.24
2022-10-27T00:03:00.227Z,95.05
2022-10-27T00:05:26.890Z,94.39
2022-10-27T00:07:53.761Z,94.11
2022-10-27T00:10:20.369Z,94.64
2022-10-27T00:12:46.889Z,94.29
2022-10-27T00:15:14.353Z,94.08
2022-10-27T00:17:41.141Z,93.94
2022-10-27T00:20:08.681Z,94.77
2022-10-27T00:22:35.216Z,94.55
2022-10-27T00:25:01.894Z,94.18
2022-10-27T00:27:28.564Z,94.41
2022-10-27T00:29:55.004Z,95.56
2022-10-27T00:32:21.515Z,97.28
2022-10-27T00:34:47.919Z,96.78
2022-10-27T00:37:14.499Z,96.59
2022-10-27T00:39:40.881Z,95.48
2022-10-27T00:42:12.042Z,95.33
2022-10-27T00:44:41.125Z,95.31
2022-10-27T00:47:19.134Z,95.91
2022-10-27T00:49:57.461Z,95.06
2022-10-27T00:52:27.461Z,94.60
2022-10-27T00:54:57.097Z,94.82
2022-10-27T00:57:24.152Z,93.97
2022-10-27T00:59:50.577Z,93.62
2022-10-27T01:02:17.396Z,94.05
2022-10-27T01:04:50.885Z,94.43
2022-10-27T01:07:19.418Z,94.33
2022-10-27T01:09:46.814Z,94.64
2022-10-27T01:12:13.226Z,94.00
2022-10-27T01:14:39.939Z,94.43
2022-10-27T01:17:40.121Z,94.75
2022-10-27T01:20:27.737Z,96.54
2022-10-27T01:23:24.830Z,97.16
2022-10-27T01:26:21.650Z,97.53
2022-10-27T01:29:03.806Z,96.64
2022-10-27T01:31:36.417Z,96.24
2022-10-27T01:34:21.513Z,97.00
2022-10-27T01:37:13.650Z,96.70
2022-10-27T01:39:53.258Z,96.89
2022-10-27T01:42:32.582Z,96.60
2022-10-27T01:45:00.610Z,96.39
2022-10-27T01:47:27.421Z,96.10
2022-10-27T01:49:56.756Z,96.80
2022-10-27T01:52:43.533Z,97.22
2022-10-27T01:55:47.263Z,96.73
2022-10-27T01:58:39.772Z,95.53
2022-10-27T02:01:43.228Z,94.90
2022-10-27T02:04:18.405Z,95.38
2022-10-27T02:06:55.838Z,95.19
2022-10-27T02:09:33.899Z,95.06
2022-10-27T02:12:04.639Z,94.21
2022-10-27T02:14:31.581Z,94.34
2022-10-27T02:16:59.546Z,94.88
2022-10-27T02:19:30.173Z,95.47
2022-10-27T02:22:00.643Z,95.58
2022-10-27T02:24:28.030Z,95.55
2022-10-27T02:27:17.863Z,95.63
2022-10-27T02:29:47.837Z,95.07
2022-10-27T02:32:18.801Z,95.50
2022-10-27T02:34:47.074Z,95.14
2022-10-27T02:37:25.440Z,94.39
2022-10-27T02:39:51.973Z,94.71
2022-10-27T02:42:18.364Z,95.61
2022-10-27T02:44:44.741Z,96.41
2022-10-27T02:47:11.103Z,96.13
2022-10-27T02:49:37.476Z,95.49
2022-10-27T02:52:04.718Z,96.17
2022-10-27T02:54:31.738Z,96.31
2022-10-27T02:56:58.790Z,97.94
2022-10-27T02:59:25.532Z,97.74
2022-10-27T03:01:52.145Z,97.58
2022-10-27T03:04:18.678Z,97.18
2022-10-27T03:06:45.085Z,96.20
2022-10-27T03:09:11.457Z,95.78
2022-10-27T03:11:39.555Z,96.28
2022-10-27T03:14:07.970Z,95.88
2022-10-27T03:16:34.358Z,95.17
2022-10-27T03:19:00.749Z,95.19
2022-10-27T03:21:27.096Z,96.35
2022-10-27T03:23:53.477Z,97.02
2022-10-27T03:26:19.874Z,96.87
2022-10-27T03:28:46.242Z,99.39
2022-10-27T03:31:12.633Z,99.31
2022-10-27T03:33:38.999Z,99.25
2022-10-27T03:36:05.780Z,99.40
2022-10-27T03:38:32.258Z,98.73
2022-10-27T03:40:58.646Z,97.54
2022-10-27T03:43:25.171Z,96.51
2022-10-27T03:45:55.075Z,95.81
2022-10-27T03:48:23.645Z,95.63
2022-10-27T03:50:51.067Z,95.29
2022-10-27T03:53:18.069Z,95.55
2022-10-27T03:55:44.923Z,95.81
2022-10-27T03:58:16.829Z,96.25
2022-10-27T04:00:44.573Z,95.95
2022-10-27T04:03:11.437Z,96.27
2022-10-27T04:05:37.818Z,96.04
2022-10-27T04:08:04.285Z,96.26
2022-10-27T04:10:30.667Z,96.42
2022-10-27T04:12:57.563Z,96.12
2022-10-27T04:15:26.520Z,95.93
2022-10-27T04:17:57.595Z,96.27
2022-10-27T04:20:24.585Z,95.81
2022-10-27T04:22:51.604Z,95.18
2022-10-27T04:25:18.353Z,95.08
2022-10-27T04:27:44.825Z,95.58
2022-10-27T04:30:11.712Z,95.92
2022-10-27T04:32:38.211Z,95.78
2022-10-27T04:35:05.918Z,96.08
2022-10-27T04:37:34.016Z,96.22
2022-10-27T04:40:00.796Z,96.41
2022-10-27T04:42:27.188Z,96.20
2022-10-27T04:44:53.672Z,97.32
2022-10-27T04:47:20.056Z,96.91
2022-10-27T04:49:46.616Z,96.58
2022-10-27T04:54:44.902Z,95.99
2022-10-27T04:57:11.502Z,95.81
2022-10-27T04:59:37.929Z,96.38
2022-10-27T05:02:04.506Z,96.04
2022-10-27T05:04:30.904Z,96.22
2022-10-27T05:06:57.415Z,96.46
2022-10-27T05:09:23.785Z,96.62
2022-10-27T05:11:50.260Z,96.50
2022-10-27T05:14:16.712Z,96.34
2022-10-27T05:16:43.064Z,96.37
2022-10-27T05:19:09.423Z,96.69
2022-10-27T05:21:35.843Z,98.53
2022-10-27T05:24:02.303Z,98.35
2022-10-27T05:26:29.429Z,98.61
2022-10-27T05:28:57.370Z,98.23
2022-10-27T05:31:23.739Z,97.40
2022-10-27T05:33:50.172Z,96.49
2022-10-27T05:36:16.588Z,96.65
2022-10-27T05:38:45.803Z,97.17
2022-10-27T05:41:12.190Z,97.29
2022-10-27T05:43:41.527Z,97.32
2022-10-27T05:46:09.025Z,96.94
2022-10-27T05:48:38.209Z,96.26
2022-10-27T05:51:08.074Z,96.27
2022-10-27T05:53:34.435Z,96.37
2022-10-27T05:56:01.018Z,96.62
2022-10-27T05:58:27.366Z,97.04
2022-10-27T06:00:58.750Z,97.90
2022-10-27T06:03:26.005Z,97.63
2022-10-27T06:05:53.440Z,97.84
2022-10-27T06:08:20.709Z,98.73
2022-10-27T06:10:48.008Z,99.36
2022-10-27T06:13:14.749Z,100.00
2022-10-27T06:18:11.325Z,100.00
2022-10-27T06:20:37.743Z,99.33
2022-10-27T06:23:05.714Z,97.94
2022-10-27T06:25:32.120Z,98.06
2022-10-27T06:27:58.703Z,97.90
2022-10-27T06:30:25.191Z,97.84
2022-10-27T06:32:52.003Z,97.42
2022-10-27T06:35:19.645Z,96.71
2022-10-27T06:37:46.814Z,95.97
2022-10-27T06:40:16.363Z,95.34
2022-10-27T06:43:01.702Z,95.48
2022-10-27T06:45:29.362Z,96.95
2022-10-27T06:47:58.068Z,96.78
2022-10-27T06:50:24.542Z,97.33
2022-10-27T06:52:51.809Z,97.39
2022-10-27T06:55:19.093Z,96.95
2022-10-27T06:57:45.464Z,95.63
2022-10-27T07:00:12.626Z,95.23
2022-10-27T07:02:39.104Z,94.31
2022-10-27T07:05:07.553Z,92.19
2022-10-27T07:07:34.785Z,91.80
2022-10-27T07:10:01.178Z,91.50
2022-10-27T07:12:27.811Z,91.76
2022-10-27T07:14:54.281Z,90.79
2022-10-27T07:19:52.154Z,89.88
2022-10-27T07:22:18.662Z,88.15
2022-10-27T07:24:45.068Z,87.35
2022-10-27T07:27:11.470Z,87.42
2022-10-27T07:29:37.922Z,86.58
2022-10-27T07:32:04.628Z,85.94
2022-10-27T07:34:31.013Z,84.18
2022-10-27T07:36:57.397Z,83.13
2022-10-27T07:39:23.751Z,81.09
2022-10-27T07:41:50.115Z,79.51
2022-10-27T07:44:16.729Z,77.79
2022-10-27T07:46:43.230Z,76.33
2022-10-27T07:49:09.622Z,76.10
2022-10-27T07:51:36.075Z,74.79
2022-10-27T07:54:02.612Z,75.08
2022-10-27T07:56:29.079Z,74.87
2022-10-27T07:58:55.486Z,74.22
2022-10-27T08:01:22.022Z,72.91
2022-10-27T08:03:51.120Z,73.42
2022-10-27T08:06:17.954Z,73.86
2022-10-27T08:08:44.433Z,74.73
2022-10-27T08:11:10.827Z,74.60
2022-10-27T08:13:37.182Z,72.32
2022-10-27T08:16:03.636Z,72.03
2022-10-27T08:18:30.003Z,71.27
2022-10-27T08:20:56.465Z,71.06
2022-10-27T08:23:25.508Z,69.53
2022-10-27T08:25:52.844Z,68.75
2022-10-27T08:28:19.388Z,69.26
2022-10-27T08:30:52.316Z,66.82
2022-10-27T08:33:22.488Z,66.22
2022-10-27T08:35:50.607Z,67.15
2022-10-27T08:38:18.319Z,66.79
2022-10-27T08:41:07.745Z,67.24
2022-10-27T08:43:46.001Z,66.13
2022-10-27T08:46:31.041Z,65.57
2022-10-27T08:49:05.279Z,63.89
2022-10-27T08:51:35.060Z,63.81
2022-10-27T08:54:04.385Z,63.48
2022-10-27T08:56:39.213Z,64.49
2022-10-27T08:59:05.916Z,62.53
2022-10-27T09:01:49.820Z,62.50
2022-10-27T09:04:28.870Z,63.08
2022-10-27T09:07:16.721Z,62.05
2022-10-27T09:09:52.410Z,61.22
2022-10-27T09:12:26.536Z,61.04
2022-10-27T09:15:15.813Z,59.51
2022-10-27T09:17:49.047Z,60.60
2022-10-27T09:20:35.237Z,61.30
2022-10-27T09:23:06.786Z,61.34
2022-10-27T09:25:38.379Z,60.57
2022-10-27T09:28:05.911Z,59.38
2022-10-27T09:30:35.406Z,58.77
2022-10-27T09:33:01.845Z,58.81
2022-10-27T09:35:31.626Z,60.51
2022-10-27T09:37:59.636Z,61.19
2022-10-27T09:40:28.752Z,55.17
2022-10-27T09:42:56.604Z,51.82
2022-10-27T09:45:25.457Z,50.61
2022-10-27T09:47:56.519Z,46.41
2022-10-27T09:50:26.216Z,45.11
2022-10-27T09:52:55.141Z,46.57
2022-10-27T09:55:21.849Z,43.86
2022-10-27T09:57:50.046Z,43.29
2022-10-27T10:00:16.740Z,42.25
2022-10-27T10:02:54.514Z,42.91
2022-10-27T10:05:27.047Z,41.31
2022-10-27T10:08:16.674Z,46.68
2022-10-27T10:11:02.581Z,42.63
2022-10-27T10:13:30.923Z,43.81
2022-10-27T10:16:12.797Z,43.65
2022-10-27T10:18:41.126Z,44.14
2022-10-27T10:21:10.714Z,43.34
2022-10-27T10:23:57.874Z,42.72
2022-10-27T10:26:29.532Z,41.44
2022-10-27T10:29:06.928Z,41.64
2022-10-27T10:31:33.545Z,40.65
2022-10-27T10:34:05.012Z,41.02
2022-10-27T10:36:39.776Z,42.13
2022-10-27T10:39:29.936Z,44.26
2022-10-27T10:42:17.531Z,44.81
2022-10-27T10:44:47.988Z,44.20
2022-10-27T10:47:29.544Z,44.18
2022-10-27T10:50:02.113Z,45.26
2022-10-27T10:52:38.192Z,43.87
2022-10-27T10:55:18.283Z,42.75
2022-10-27T10:57:46.332Z,43.12
2022-10-27T11:00:17.796Z,43.08
2022-10-27T11:02:59.253Z,42.66
2022-10-27T11:05:32.003Z,44.00
2022-10-27T11:07:59.143Z,46.41
2022-10-27T11:10:28.208Z,42.38
2022-10-27T11:13:00.432Z,42.28
2022-10-27T11:15:42.724Z,41.93
2022-10-27T11:18:12.137Z,42.68
2022-10-27T11:20:38.785Z,43.42
2022-10-27T11:23:28.412Z,41.88
2022-10-27T11:25:58.361Z,41.63
2022-10-27T11:28:44.566Z,42.94
2022-10-27T11:31:24.352Z,41.91
2022-10-27T11:34:16.883Z,43.50
2022-10-27T11:36:59.343Z,43.48
2022-10-27T11:39:43.627Z,43.07
2022-10-27T11:42:30.500Z,41.44
2022-10-27T11:45:35.358Z,41.91
2022-10-27T11:48:13.407Z,41.84
2022-10-27T11:50:53.679Z,41.11
2022-10-27T11:53:20.273Z,41.31
2022-10-27T11:56:18.805Z,41.35
2022-10-27T11:58:51.945Z,39.41
2022-10-27T12:01:49.028Z,38.93
2022-10-27T12:04:39.947Z,39.03
2022-10-27T12:07:28.758Z,41.87
2022-10-27T12:10:10.355Z,40.00
2022-10-27T12:12:44.885Z,41.01
2022-10-27T12:15:35.586Z,41.35
2022-10-27T12:18:13.443Z,42.98
2022-10-27T12:20:51.709Z,41.60
2022-10-27T12:23:24.409Z,39.45
2022-10-27T12:26:11.774Z,46.41
2022-10-27T12:28:38.762Z,43.82
2022-10-27T12:31:12.512Z,43.06
2022-10-27T12:33:48.066Z,42.41
2022-10-27T12:36:20.531Z,38.39
2022-10-27T12:38:58.908Z,36.31
2022-10-27T12:41:31.675Z,37.33
2022-10-27T12:44:43.164Z,43.27
2022-10-27T12:47:35.991Z,37.36
2022-10-27T12:50:29.453Z,36.72
2022-10-27T12:53:13.087Z,33.25
2022-10-27T12:55:53.365Z,35.52
2022-10-27T12:58:52.770Z,35.56
2022-10-27T13:01:39.342Z,36.19
2022-10-27T13:04:20.724Z,37.49
2022-10-27T13:07:16.395Z,40.45
2022-10-27T13:09:54.435Z,37.01
2022-10-27T13:12:28.195Z,35.22
2022-10-27T13:15:11.791Z,33.22
2022-10-27T13:17:57.099Z,35.51
2022-10-27T13:20:55.111Z,35.93
2022-10-27T13:23:34.528Z,34.89
2022-10-27T13:26:20.306Z,35.71
2022-10-27T13:28:56.273Z,33.70
2022-10-27T13:31:24.510Z,35.00
2022-10-27T13:34:09.503Z,35.13
2022-10-27T13:36:37.447Z,36.35
2022-10-27T13:39:16.400Z,37.83
2022-10-27T13:41:56.010Z,36.51
2022-10-27T13:44:39.699Z,36.62
2022-10-27T13:47:12.135Z,37.65
2022-10-27T13:49:41.383Z,39.41
2022-10-27T13:52:16.846Z,45.81
2022-10-27T13:54:58.375Z,48.67
2022-10-27T13:58:00.617Z,51.11
2022-10-27T14:01:05.090Z,52.37
2022-10-27T14:06:09.990Z,54.50
2022-10-27T14:08:48.931Z,56.37
2022-10-27T14:11:24.939Z,56.65
2022-10-27T14:13:55.831Z,56.36
2022-10-27T14:16:26.591Z,57.42
2022-10-27T14:19:12.510Z,57.50
2022-10-27T14:21:48.922Z,59.56
2022-10-27T14:24:21.250Z,59.68
2022-10-27T14:26:47.759Z,61.78
2022-10-27T14:29:23.776Z,62.09
2022-10-27T14:31:50.275Z,62.47
2022-10-27T14:34:22.528Z,63.59
2022-10-27T14:36:49.978Z,62.97
2022-10-27T14:39:22.417Z,62.97
2022-10-27T14:41:50.529Z,62.68
2022-10-27T14:44:27.418Z,63.74
2022-10-27T14:47:00.028Z,63.18
2022-10-27T14:49:37.235Z,62.81
2022-10-27T14:52:08.129Z,63.50
2022-10-27T14:54:34.623Z,63.30
2022-10-27T14:57:28.942Z,63.25
2022-10-27T14:59:55.363Z,63.51
2022-10-27T15:02:23.145Z,62.35
2022-10-27T15:04:49.573Z,61.27
2022-10-27T15:07:20.073Z,62.38
2022-10-27T15:09:52.783Z,62.11
2022-10-27T15:12:21.225Z,62.55
2022-10-27T15:14:48.125Z,62.09
2022-10-27T15:17:23.220Z,62.56
2022-10-27T15:19:56.436Z,62.04
2022-10-27T15:22:23.855Z,62.67
2022-10-27T15:24:50.737Z,63.28
2022-10-27T15:27:17.729Z,62.90
2022-10-27T15:29:46.027Z,63.15
2022-10-27T15:32:21.882Z,63.74
2022-10-27T15:34:49.126Z,63.65
2022-10-27T15:37:26.238Z,64.02
2022-10-27T15:39:54.021Z,63.78
2022-10-27T15:42:23.914Z,63.86
2022-10-27T15:44:50.788Z,64.32
2022-10-27T15:47:42.705Z,64.46
2022-10-27T15:50:24.389Z,65.66
2022-10-27T15:52:54.035Z,65.94
2022-10-27T15:55:23.584Z,66.54
2022-10-27T15:57:50.487Z,66.40
2022-10-27T16:00:24.756Z,66.85
2022-10-27T16:02:59.306Z,67.72
2022-10-27T16:05:31.611Z,68.02
2022-10-27T16:07:59.401Z,68.49
2022-10-27T16:10:27.937Z,68.31
2022-10-27T16:12:55.693Z,68.35
2022-10-27T16:15:25.229Z,68.72
2022-10-27T16:17:54.770Z,68.85
2022-10-27T16:20:33.891Z,68.97
2022-10-27T16:23:01.455Z,69.00
2022-10-27T16:25:30.377Z,69.49
2022-10-27T16:27:57.510Z,69.63
2022-10-27T16:30:23.977Z,70.25
2022-10-27T16:33:04.169Z,70.40
2022-10-27T16:35:33.978Z,71.13
2022-10-27T16:38:01.129Z,72.19
2022-10-27T16:40:27.961Z,72.50
2022-10-27T16:42:58.147Z,73.17
2022-10-27T16:45:24.743Z,72.91
2022-10-27T16:47:52.479Z,73.24
2022-10-27T16:50:19.340Z,73.53
2022-10-27T16:52:51.701Z,72.99
2022-10-27T16:55:18.134Z,73.70
2022-10-27T16:57:48.744Z,74.58
2022-10-27T17:00:16.630Z,74.80
2022-10-27T17:02:43.013Z,75.68
2022-10-27T17:05:09.620Z,75.80
2022-10-27T17:07:39.223Z,77.74
2022-10-27T17:10:06.406Z,79.25
2022-10-27T17:12:33.034Z,77.81
2022-10-27T17:14:59.387Z,78.02
2022-10-27T17:17:25.772Z,77.38
2022-10-27T17:19:52.225Z,78.13
2022-10-27T17:22:18.617Z,78.92
2022-10-27T17:24:45.023Z,79.63
2022-10-27T17:27:11.652Z,79.58
2022-10-27T17:29:38.106Z,79.35
2022-10-27T17:32:04.643Z,80.43
2022-10-27T17:34:32.130Z,81.60
2022-10-27T17:36:59.323Z,81.52
2022-10-27T17:39:25.681Z,81.45
2022-10-27T17:41:52.067Z,82.64
2022-10-27T17:44:18.658Z,81.77
2022-10-27T17:46:45.067Z,80.68
2022-10-27T17:49:11.488Z,81.24
2022-10-27T17:51:38.059Z,81.82
2022-10-27T17:54:04.523Z,80.96
2022-10-27T17:56:33.437Z,79.69
2022-10-27T17:59:00.076Z,80.21
2022-10-27T18:01:31.901Z,80.23
2022-10-27T18:04:06.924Z,78.57
2022-10-27T18:06:34.037Z,78.92
2022-10-27T18:09:02.288Z,79.09
2022-10-27T18:11:32.027Z,78.75
2022-10-27T18:14:03.362Z,78.73
2022-10-27T18:16:32.699Z,79.36
2022-10-27T18:19:03.822Z,80.75
2022-10-27T18:21:32.187Z,81.13
2022-10-27T18:24:00.292Z,80.88
2022-10-27T18:26:28.234Z,81.42
2022-10-27T18:28:54.950Z,81.18
2022-10-27T18:31:24.210Z,81.54
2022-10-27T18:33:50.989Z,81.55
2022-10-27T18:36:20.285Z,82.55
2022-10-27T18:38:47.323Z,82.17
2022-10-27T18:41:16.021Z,83.96
2022-10-27T18:43:46.793Z,84.40
2022-10-27T18:46:14.606Z,83.95
2022-10-27T18:48:41.240Z,83.87
2022-10-27T18:51:12.726Z,84.04
2022-10-27T18:53:39.430Z,83.57
2022-10-27T18:56:08.313Z,84.08
2022-10-27T18:58:36.310Z,84.28
2022-10-27T19:01:11.529Z,85.06
2022-10-27T19:03:38.779Z,86.60
2022-10-27T19:06:07.705Z,86.30
2022-10-27T19:08:34.726Z,86.16
2022-10-27T19:11:06.713Z,85.95
2022-10-27T19:13:34.864Z,85.80
2022-10-27T19:16:06.846Z,86.11
2022-10-27T19:18:33.771Z,85.59
2022-10-27T19:21:02.434Z,85.27
2022-10-27T19:23:30.017Z,85.78
2022-10-27T19:26:05.089Z,86.03
2022-10-27T19:28:32.478Z,86.36
2022-10-27T19:30:58.864Z,86.42
2022-10-27T19:33:25.701Z,86.52
2022-10-27T19:35:53.685Z,87.87
2022-10-27T19:38:21.351Z,88.63
2022-10-27T19:40:47.879Z,89.25
2022-10-27T19:43:14.411Z,88.05
2022-10-27T19:45:48.142Z,88.85
2022-10-27T19:48:17.412Z,87.92
2022-10-27T19:50:44.263Z,89.24
2022-10-27T19:53:11.499Z,88.68
2022-10-27T19:55:38.025Z,88.84
2022-10-27T19:58:04.534Z,88.60
2022-10-27T20:00:31.016Z,88.33
2022-10-27T20:02:58.046Z,88.26
2022-10-27T20:05:24.509Z,88.87
2022-10-27T20:07:51.910Z,88.20
2022-10-27T20:10:19.247Z,87.90
2022-10-27T20:12:45.755Z,89.63
2022-10-27T20:15:12.772Z,90.60
2022-10-27T20:17:39.374Z,90.64
2022-10-27T20:20:07.123Z,89.43
2022-10-27T20:22:33.516Z,89.06
2022-10-27T20:24:59.889Z,89.91
2022-10-27T20:27:29.282Z,88.81
2022-10-27T20:29:55.780Z,89.71
2022-10-27T20:32:23.752Z,90.95
2022-10-27T20:34:50.216Z,91.16
2022-10-27T20:37:16.686Z,91.96
2022-10-27T20:39:43.105Z,91.78
2022-10-27T20:42:09.565Z,91.66
2022-10-27T20:44:35.937Z,91.78
2022-10-27T20:47:02.424Z,92.05
2022-10-27T20:49:28.779Z,92.11
2022-10-27T20:51:55.177Z,91.56
2022-10-27T20:54:21.529Z,92.46
2022-10-27T20:56:49.109Z,92.34
2022-10-27T20:59:19.981Z,92.83
2022-10-27T21:01:49.165Z,93.12
2022-10-27T21:04:21.934Z,92.53
2022-10-27T21:06:50.447Z,95.28
2022-10-27T21:09:19.056Z,94.62
2022-10-27T21:11:46.815Z,94.68
2022-10-27T21:14:13.608Z,94.42
2022-10-27T21:16:40.511Z,92.82
2022-10-27T21:19:09.325Z,92.39
2022-10-27T21:21:36.321Z,92.78
2022-10-27T21:24:03.950Z,92.08
2022-10-27T21:26:30.453Z,93.01
2022-10-27T21:28:58.466Z,95.04
2022-10-27T21:31:28.620Z,95.54
2022-10-27T21:33:55.776Z,98.67
2022-10-27T21:36:22.348Z,96.67
2022-10-27T21:38:50.436Z,95.00
2022-10-27T21:41:19.765Z,95.86
2022-10-27T21:43:49.600Z,96.28
2022-10-27T21:46:19.218Z,95.34
2022-10-27T21:48:46.073Z,95.46
2022-10-27T21:51:14.189Z,95.15
2022-10-27T21:53:41.346Z,94.37
2022-10-27T21:56:09.967Z,93.78
2022-10-27T21:58:37.043Z,93.57
2022-10-27T22:01:22.250Z,93.09
2022-10-27T22:03:48.779Z,93.70
2022-10-27T22:06:16.555Z,93.14
2022-10-27T22:08:43.729Z,93.94
2022-10-27T22:11:15.126Z,96.23
2022-10-27T22:13:42.051Z,95.73
2022-10-27T22:16:10.804Z,94.89
2022-10-27T22:18:38.135Z,94.40
2022-10-27T22:21:05.923Z,95.68
2022-10-27T22:23:33.688Z,94.45
2022-10-27T22:26:26.938Z,93.76
2022-10-27T22:28:54.015Z,96.15
2022-10-27T22:31:23.441Z,95.54
2022-10-27T22:33:51.130Z,94.26
2022-10-27T22:36:19.087Z,94.74
2022-10-27T22:38:46.012Z,95.19
2022-10-27T22:41:16.249Z,94.53
2022-10-27T22:43:44.132Z,95.58
2022-10-27T22:46:16.698Z,95.12
2022-10-27T22:48:43.091Z,95.22
2022-10-27T22:51:14.250Z,94.98
2022-10-27T22:53:42.073Z,94.16
2022-10-27T22:56:12.931Z,94.71
2022-10-27T22:58:39.807Z,95.71
2022-10-27T23:01:08.785Z,96.13
2022-10-27T23:03:35.875Z,95.45
2022-10-27T23:06:03.287Z,94.26
2022-10-27T23:08:30.289Z,93.28
2022-10-27T23:10:58.650Z,93.35
2022-10-27T23:13:26.509Z,93.49
2022-10-27T23:15:54.661Z,92.63
2022-10-27T23:18:21.253Z,93.88
2022-10-27T23:20:47.701Z,93.58
2022-10-27T23:23:14.133Z,94.63
2022-10-27T23:25:40.565Z,94.64
2022-10-27T23:28:07.206Z,94.07
2022-10-27T23:30:33.967Z,94.52
2022-10-27T23:33:00.416Z,93.72
2022-10-27T23:35:26.762Z,95.06
2022-10-27T23:37:53.388Z,97.27
2022-10-27T23:40:19.884Z,97.48
2022-10-27T23:42:46.398Z,98.88
2022-10-27T23:45:12.899Z,98.51
2022-10-27T23:47:39.336Z,97.19
2022-10-27T23:50:06.096Z,96.44
2022-10-27T23:52:32.635Z,96.36
2022-10-27T23:54:59.262Z,97.49
2022-10-27T23:57:25.649Z,99.27
2022-10-27T23:59:52.152Z,97.35
